sensor_id;sensor_type;location;lat;lon;timestamp;P1;durP1;ratioP1;P2;durP2;ratioP2
12232;SDS011;6179;51.748;8.728;2023-08-01T00:00:19;0.83;;;0.50;;
12232;SDS011;6179;51.748;8.728;2023-08-01T00:06:20;1.33;;;0.60;;
12232;SDS011;6179;51.748;8.728;2023-08-01T00:12:23;2.40;;;0.50;;
12232;SDS011;6179;51.748;8.728;2023-08-01T00:18:24;0.57;;;0.30;;
12232;SDS011;6179;51.748;8.728;2023-08-01T00:24:25;0.40;;;0.40;;
12232;SDS011;6179;51.748;8.728;2023-08-01T00:30:25;5.00;;;0.40;;
12232;SDS011;6179;51.748;8.728;2023-08-01T00:36:26;1.63;;;0.40;;
12232;SDS011;6179;51.748;8.728;2023-08-01T00:42:26;3.17;;;0.80;;
12232;SDS011;6179;51.748;8.728;2023-08-01T00:48:28;0.87;;;0.40;;
12232;SDS011;6179;51.748;8.728;2023-08-01T00:54:29;0.30;;;0.30;;
12232;SDS011;6179;51.748;8.728;2023-08-01T01:00:35;0.40;;;0.40;;
12232;SDS011;6179;51.748;8.728;2023-08-01T01:06:47;0.53;;;0.40;;
12232;SDS011;6179;51.748;8.728;2023-08-01T01:12:49;0.70;;;0.40;;
12232;SDS011;6179;51.748;8.728;2023-08-01T01:18:50;0.80;;;0.30;;
12232;SDS011;6179;51.748;8.728;2023-08-01T01:24:51;0.60;;;0.40;;
12232;SDS011;6179;51.748;8.728;2023-08-01T01:30:52;0.33;;;0.30;;
12232;SDS011;6179;51.748;8.728;2023-08-01T01:36:55;0.30;;;0.30;;
12232;SDS011;6179;51.748;8.728;2023-08-01T01:42:55;1.23;;;0.40;;
12232;SDS011;6179;51.748;8.728;2023-08-01T01:48:56;0.60;;;0.30;;
12232;SDS011;6179;51.748;8.728;2023-08-01T01:54:58;6.00;;;0.50;;
12232;SDS011;6179;51.748;8.728;2023-08-01T02:00:59;0.50;;;0.33;;
12232;SDS011;6179;51.748;8.728;2023-08-01T02:07:00;0.40;;;0.40;;
12232;SDS011;6179;51.748;8.728;2023-08-01T02:13:00;4.00;;;0.40;;
12232;SDS011;6179;51.748;8.728;2023-08-01T02:19:01;0.50;;;0.50;;
12232;SDS011;6179;51.748;8.728;2023-08-01T02:25:01;0.30;;;0.30;;
12232;SDS011;6179;51.748;8.728;2023-08-01T02:31:02;1.27;;;0.50;;
12232;SDS011;6179;51.748;8.728;2023-08-01T02:37:03;0.40;;;0.40;;
12232;SDS011;6179;51.748;8.728;2023-08-01T02:43:03;0.40;;;0.40;;
12232;SDS011;6179;51.748;8.728;2023-08-01T02:49:04;0.40;;;0.33;;
12232;SDS011;6179;51.748;8.728;2023-08-01T02:55:05;0.43;;;0.43;;
12232;SDS011;6179;51.748;8.728;2023-08-01T03:01:06;0.50;;;0.40;;
12232;SDS011;6179;51.748;8.728;2023-08-01T03:07:09;1.07;;;0.40;;
12232;SDS011;6179;51.748;8.728;2023-08-01T03:13:10;1.13;;;0.37;;
12232;SDS011;6179;51.748;8.728;2023-08-01T03:19:10;0.50;;;0.40;;
12232;SDS011;6179;51.748;8.728;2023-08-01T03:25:11;1.90;;;1.00;;
12232;SDS011;6179;51.748;8.728;2023-08-01T03:31:14;0.50;;;0.50;;
12232;SDS011;6179;51.748;8.728;2023-08-01T03:37:15;0.33;;;0.33;;
12232;SDS011;6179;51.748;8.728;2023-08-01T03:43:16;0.63;;;0.50;;
12232;SDS011;6179;51.748;8.728;2023-08-01T03:49:17;2.20;;;0.50;;
12232;SDS011;6179;51.748;8.728;2023-08-01T03:55:18;1.43;;;0.70;;
12232;SDS011;6179;51.748;8.728;2023-08-01T04:01:18;1.53;;;0.60;;
12232;SDS011;6179;51.748;8.728;2023-08-01T04:07:19;1.33;;;0.57;;
12232;SDS011;6179;51.748;8.728;2023-08-01T04:13:20;2.53;;;0.50;;
12232;SDS011;6179;51.748;8.728;2023-08-01T04:19:21;0.77;;;0.60;;
12232;SDS011;6179;51.748;8.728;2023-08-01T04:25:21;0.63;;;0.50;;
12232;SDS011;6179;51.748;8.728;2023-08-01T04:31:24;0.80;;;0.70;;
12232;SDS011;6179;51.748;8.728;2023-08-01T04:37:25;12.47;;;0.60;;
12232;SDS011;6179;51.748;8.728;2023-08-01T04:43:26;1.10;;;0.77;;
12232;SDS011;6179;51.748;8.728;2023-08-01T04:49:26;1.57;;;1.03;;
12232;SDS011;6179;51.748;8.728;2023-08-01T04:55:27;1.83;;;1.07;;
12232;SDS011;6179;51.748;8.728;2023-08-01T05:01:28;6.97;;;1.93;;
12232;SDS011;6179;51.748;8.728;2023-08-01T05:07:28;5.50;;;2.43;;
12232;SDS011;6179;51.748;8.728;2023-08-01T05:13:30;4.73;;;3.07;;
12232;SDS011;6179;51.748;8.728;2023-08-01T05:19:30;3.63;;;2.63;;
12232;SDS011;6179;51.748;8.728;2023-08-01T05:25:31;9.70;;;2.70;;
12232;SDS011;6179;51.748;8.728;2023-08-01T05:31:32;5.50;;;3.20;;
12232;SDS011;6179;51.748;8.728;2023-08-01T05:37:32;4.50;;;3.50;;
12232;SDS011;6179;51.748;8.728;2023-08-01T05:43:33;7.50;;;3.47;;
12232;SDS011;6179;51.748;8.728;2023-08-01T05:49:33;11.90;;;2.43;;
12232;SDS011;6179;51.748;8.728;2023-08-01T05:55:34;5.37;;;3.50;;
12232;SDS011;6179;51.748;8.728;2023-08-01T06:01:35;4.90;;;4.07;;
12232;SDS011;6179;51.748;8.728;2023-08-01T06:07:35;5.80;;;3.53;;
12232;SDS011;6179;51.748;8.728;2023-08-01T06:13:36;6.80;;;2.60;;
12232;SDS011;6179;51.748;8.728;2023-08-01T06:19:37;13.37;;;3.90;;
12232;SDS011;6179;51.748;8.728;2023-08-01T06:25:37;4.07;;;3.47;;
12232;SDS011;6179;51.748;8.728;2023-08-01T06:31:38;4.13;;;2.83;;
12232;SDS011;6179;51.748;8.728;2023-08-01T06:37:38;9.83;;;2.73;;
12232;SDS011;6179;51.748;8.728;2023-08-01T06:43:39;5.47;;;3.43;;
12232;SDS011;6179;51.748;8.728;2023-08-01T06:49:40;5.50;;;3.67;;
12232;SDS011;6179;51.748;8.728;2023-08-01T06:55:40;6.63;;;2.63;;
12232;SDS011;6179;51.748;8.728;2023-08-01T07:01:41;14.80;;;4.27;;
12232;SDS011;6179;51.748;8.728;2023-08-01T07:07:43;10.53;;;4.70;;
12232;SDS011;6179;51.748;8.728;2023-08-01T07:13:44;11.10;;;5.97;;
12232;SDS011;6179;51.748;8.728;2023-08-01T07:19:44;15.77;;;6.70;;
12232;SDS011;6179;51.748;8.728;2023-08-01T07:25:45;8.80;;;4.27;;
12232;SDS011;6179;51.748;8.728;2023-08-01T07:31:46;13.27;;;5.33;;
12232;SDS011;6179;51.748;8.728;2023-08-01T07:37:46;15.07;;;6.53;;
12232;SDS011;6179;51.748;8.728;2023-08-01T07:43:47;16.23;;;7.33;;
12232;SDS011;6179;51.748;8.728;2023-08-01T07:49:48;20.47;;;8.27;;
12232;SDS011;6179;51.748;8.728;2023-08-01T07:55:51;11.83;;;8.13;;
12232;SDS011;6179;51.748;8.728;2023-08-01T08:01:52;12.97;;;8.53;;
12232;SDS011;6179;51.748;8.728;2023-08-01T08:07:53;13.70;;;8.50;;
12232;SDS011;6179;51.748;8.728;2023-08-01T08:13:53;11.60;;;7.80;;
12232;SDS011;6179;51.748;8.728;2023-08-01T08:19:54;16.90;;;8.17;;
12232;SDS011;6179;51.748;8.728;2023-08-01T08:25:54;16.07;;;8.30;;
12232;SDS011;6179;51.748;8.728;2023-08-01T08:31:55;20.20;;;8.53;;
12232;SDS011;6179;51.748;8.728;2023-08-01T08:37:56;20.03;;;8.70;;
12232;SDS011;6179;51.748;8.728;2023-08-01T08:43:58;18.07;;;7.50;;
12232;SDS011;6179;51.748;8.728;2023-08-01T08:50:01;17.20;;;6.73;;
12232;SDS011;6179;51.748;8.728;2023-08-01T08:56:02;14.80;;;7.00;;
12232;SDS011;6179;51.748;8.728;2023-08-01T09:02:03;15.37;;;7.97;;
12232;SDS011;6179;51.748;8.728;2023-08-01T09:08:04;18.73;;;8.97;;
12232;SDS011;6179;51.748;8.728;2023-08-01T09:14:11;28.53;;;10.53;;
12232;SDS011;6179;51.748;8.728;2023-08-01T09:20:12;25.27;;;10.50;;
12232;SDS011;6179;51.748;8.728;2023-08-01T09:26:13;24.60;;;11.00;;
12232;SDS011;6179;51.748;8.728;2023-08-01T09:32:18;22.33;;;9.40;;
12232;SDS011;6179;51.748;8.728;2023-08-01T09:38:18;12.90;;;6.67;;
12232;SDS011;6179;51.748;8.728;2023-08-01T09:44:20;15.07;;;6.33;;
12232;SDS011;6179;51.748;8.728;2023-08-01T09:50:21;11.07;;;6.60;;
12232;SDS011;6179;51.748;8.728;2023-08-01T09:56:23;14.80;;;6.43;;
12232;SDS011;6179;51.748;8.728;2023-08-01T10:02:29;12.50;;;6.50;;
12232;SDS011;6179;51.748;8.728;2023-08-01T10:08:31;8.80;;;6.10;;
12232;SDS011;6179;51.748;8.728;2023-08-01T10:14:33;16.83;;;5.10;;
12232;SDS011;6179;51.748;8.728;2023-08-01T10:20:36;7.33;;;4.00;;
12232;SDS011;6179;51.748;8.728;2023-08-01T10:26:38;13.00;;;5.47;;
12232;SDS011;6179;51.748;8.728;2023-08-01T10:32:39;13.23;;;5.77;;
12232;SDS011;6179;51.748;8.728;2023-08-01T10:38:45;10.83;;;5.90;;
12232;SDS011;6179;51.748;8.728;2023-08-01T10:44:53;6.07;;;3.30;;
12232;SDS011;6179;51.748;8.728;2023-08-01T10:50:54;9.90;;;3.90;;
12232;SDS011;6179;51.748;8.728;2023-08-01T10:56:56;3.40;;;2.60;;
12232;SDS011;6179;51.748;8.728;2023-08-01T11:02:58;2.90;;;1.63;;
12232;SDS011;6179;51.748;8.728;2023-08-01T11:08:58;7.23;;;3.00;;
12232;SDS011;6179;51.748;8.728;2023-08-01T11:15:00;3.30;;;2.10;;
12232;SDS011;6179;51.748;8.728;2023-08-01T11:21:01;6.03;;;1.93;;
12232;SDS011;6179;51.748;8.728;2023-08-01T11:27:01;5.20;;;1.40;;
12232;SDS011;6179;51.748;8.728;2023-08-01T11:33:02;1.67;;;1.10;;
12232;SDS011;6179;51.748;8.728;2023-08-01T11:39:23;6.43;;;2.30;;
12232;SDS011;6179;51.748;8.728;2023-08-01T11:45:23;4.10;;;2.00;;
12232;SDS011;6179;51.748;8.728;2023-08-01T11:51:25;3.63;;;2.20;;
12232;SDS011;6179;51.748;8.728;2023-08-01T11:57:26;3.97;;;2.23;;
12232;SDS011;6179;51.748;8.728;2023-08-01T12:03:26;3.63;;;2.63;;
12232;SDS011;6179;51.748;8.728;2023-08-01T12:09:31;3.80;;;2.57;;
12232;SDS011;6179;51.748;8.728;2023-08-01T12:15:32;6.40;;;2.07;;
12232;SDS011;6179;51.748;8.728;2023-08-01T12:21:33;5.50;;;2.13;;
12232;SDS011;6179;51.748;8.728;2023-08-01T12:27:34;2.73;;;1.10;;
12232;SDS011;6179;51.748;8.728;2023-08-01T12:33:35;6.53;;;2.03;;
12232;SDS011;6179;51.748;8.728;2023-08-01T12:39:35;3.70;;;1.70;;
12232;SDS011;6179;51.748;8.728;2023-08-01T12:45:36;5.10;;;2.40;;
12232;SDS011;6179;51.748;8.728;2023-08-01T12:51:37;13.73;;;4.13;;
12232;SDS011;6179;51.748;8.728;2023-08-01T12:57:38;8.23;;;3.13;;
12232;SDS011;6179;51.748;8.728;2023-08-01T13:03:38;8.27;;;2.60;;
12232;SDS011;6179;51.748;8.728;2023-08-01T13:09:39;3.13;;;1.83;;
12232;SDS011;6179;51.748;8.728;2023-08-01T13:15:39;6.50;;;1.60;;
12232;SDS011;6179;51.748;8.728;2023-08-01T13:21:40;1.30;;;0.60;;
12232;SDS011;6179;51.748;8.728;2023-08-01T13:27:41;3.03;;;1.23;;
12232;SDS011;6179;51.748;8.728;2023-08-01T13:33:42;2.80;;;1.20;;
12232;SDS011;6179;51.748;8.728;2023-08-01T13:39:42;2.80;;;0.97;;
12232;SDS011;6179;51.748;8.728;2023-08-01T13:45:45;4.53;;;1.47;;
12232;SDS011;6179;51.748;8.728;2023-08-01T13:51:46;2.63;;;1.80;;
12232;SDS011;6179;51.748;8.728;2023-08-01T13:57:46;1.87;;;0.80;;
12232;SDS011;6179;51.748;8.728;2023-08-01T14:03:47;7.13;;;1.27;;
12232;SDS011;6179;51.748;8.728;2023-08-01T14:09:48;9.40;;;2.80;;
12232;SDS011;6179;51.748;8.728;2023-08-01T14:15:48;1.70;;;0.90;;
12232;SDS011;6179;51.748;8.728;2023-08-01T14:21:49;0.90;;;0.63;;
12232;SDS011;6179;51.748;8.728;2023-08-01T14:27:49;1.90;;;0.90;;
12232;SDS011;6179;51.748;8.728;2023-08-01T14:33:50;0.90;;;0.90;;
12232;SDS011;6179;51.748;8.728;2023-08-01T14:39:51;1.73;;;0.73;;
12232;SDS011;6179;51.748;8.728;2023-08-01T14:45:53;3.27;;;0.80;;
12232;SDS011;6179;51.748;8.728;2023-08-01T14:51:54;3.23;;;1.17;;
12232;SDS011;6179;51.748;8.728;2023-08-01T14:57:55;6.63;;;0.93;;
12232;SDS011;6179;51.748;8.728;2023-08-01T15:03:55;2.70;;;0.87;;
12232;SDS011;6179;51.748;8.728;2023-08-01T15:09:56;2.00;;;0.80;;
12232;SDS011;6179;51.748;8.728;2023-08-01T15:15:57;2.40;;;0.73;;
12232;SDS011;6179;51.748;8.728;2023-08-01T15:21:57;5.30;;;2.77;;
12232;SDS011;6179;51.748;8.728;2023-08-01T15:27:58;5.03;;;1.10;;
12232;SDS011;6179;51.748;8.728;2023-08-01T15:33:59;5.30;;;0.90;;
12232;SDS011;6179;51.748;8.728;2023-08-01T15:39:59;2.10;;;1.00;;
12232;SDS011;6179;51.748;8.728;2023-08-01T15:46:00;3.37;;;1.00;;
12232;SDS011;6179;51.748;8.728;2023-08-01T15:52:00;6.83;;;1.37;;
12232;SDS011;6179;51.748;8.728;2023-08-01T15:58:01;3.70;;;0.80;;
12232;SDS011;6179;51.748;8.728;2023-08-01T16:04:05;2.20;;;0.90;;
12232;SDS011;6179;51.748;8.728;2023-08-01T16:10:05;5.33;;;1.07;;
12232;SDS011;6179;51.748;8.728;2023-08-01T16:16:06;5.90;;;0.87;;
12232;SDS011;6179;51.748;8.728;2023-08-01T16:22:07;2.33;;;1.33;;
12232;SDS011;6179;51.748;8.728;2023-08-01T16:28:07;4.10;;;0.70;;
12232;SDS011;6179;51.748;8.728;2023-08-01T16:34:08;1.40;;;0.70;;
12232;SDS011;6179;51.748;8.728;2023-08-01T16:40:09;0.80;;;0.70;;
12232;SDS011;6179;51.748;8.728;2023-08-01T16:46:10;2.40;;;0.40;;
12232;SDS011;6179;51.748;8.728;2023-08-01T16:52:11;0.90;;;0.60;;
12232;SDS011;6179;51.748;8.728;2023-08-01T16:58:12;0.50;;;0.50;;
12232;SDS011;6179;51.748;8.728;2023-08-01T17:04:13;1.33;;;0.40;;
12232;SDS011;6179;51.748;8.728;2023-08-01T17:10:14;0.93;;;0.50;;
12232;SDS011;6179;51.748;8.728;2023-08-01T17:16:15;0.50;;;0.50;;
12232;SDS011;6179;51.748;8.728;2023-08-01T17:22:16;1.00;;;0.50;;
12232;SDS011;6179;51.748;8.728;2023-08-01T17:28:17;12.60;;;0.57;;
12232;SDS011;6179;51.748;8.728;2023-08-01T17:34:18;2.97;;;0.53;;
12232;SDS011;6179;51.748;8.728;2023-08-01T17:40:18;0.80;;;0.50;;
12232;SDS011;6179;51.748;8.728;2023-08-01T17:46:19;0.50;;;0.40;;
12232;SDS011;6179;51.748;8.728;2023-08-01T17:52:20;1.30;;;0.60;;
12232;SDS011;6179;51.748;8.728;2023-08-01T17:58:20;1.13;;;0.50;;
12232;SDS011;6179;51.748;8.728;2023-08-01T18:04:21;0.50;;;0.40;;
12232;SDS011;6179;51.748;8.728;2023-08-01T18:10:21;1.00;;;0.50;;
12232;SDS011;6179;51.748;8.728;2023-08-01T18:16:26;1.40;;;0.60;;
12232;SDS011;6179;51.748;8.728;2023-08-01T18:22:27;2.20;;;0.70;;
12232;SDS011;6179;51.748;8.728;2023-08-01T18:28:28;2.10;;;0.83;;
12232;SDS011;6179;51.748;8.728;2023-08-01T18:34:29;2.10;;;0.60;;
12232;SDS011;6179;51.748;8.728;2023-08-01T18:40:30;5.97;;;0.93;;
12232;SDS011;6179;51.748;8.728;2023-08-01T18:46:30;3.53;;;0.90;;
12232;SDS011;6179;51.748;8.728;2023-08-01T18:52:31;3.80;;;0.73;;
12232;SDS011;6179;51.748;8.728;2023-08-01T18:58:33;2.53;;;0.70;;
12232;SDS011;6179;51.748;8.728;2023-08-01T19:04:33;1.73;;;0.70;;
12232;SDS011;6179;51.748;8.728;2023-08-01T19:10:34;1.57;;;0.67;;
12232;SDS011;6179;51.748;8.728;2023-08-01T19:16:35;9.50;;;0.70;;
12232;SDS011;6179;51.748;8.728;2023-08-01T19:22:35;0.73;;;0.50;;
12232;SDS011;6179;51.748;8.728;2023-08-01T19:28:36;4.50;;;1.00;;
12232;SDS011;6179;51.748;8.728;2023-08-01T19:34:37;2.10;;;0.40;;
12232;SDS011;6179;51.748;8.728;2023-08-01T19:40:40;0.70;;;0.50;;
12232;SDS011;6179;51.748;8.728;2023-08-01T19:46:42;3.33;;;0.60;;
12232;SDS011;6179;51.748;8.728;2023-08-01T19:52:42;0.70;;;0.53;;
12232;SDS011;6179;51.748;8.728;2023-08-01T19:58:47;3.53;;;0.60;;
12232;SDS011;6179;51.748;8.728;2023-08-01T20:04:48;0.60;;;0.47;;
12232;SDS011;6179;51.748;8.728;2023-08-01T20:10:53;0.60;;;0.60;;
12232;SDS011;6179;51.748;8.728;2023-08-01T20:16:55;2.50;;;0.47;;
12232;SDS011;6179;51.748;8.728;2023-08-01T20:22:55;1.30;;;0.70;;
12232;SDS011;6179;51.748;8.728;2023-08-01T20:28:56;1.20;;;0.63;;
12232;SDS011;6179;51.748;8.728;2023-08-01T20:34:58;3.37;;;0.70;;
12232;SDS011;6179;51.748;8.728;2023-08-01T20:40:58;1.53;;;0.60;;
12232;SDS011;6179;51.748;8.728;2023-08-01T20:46:59;5.23;;;1.00;;
12232;SDS011;6179;51.748;8.728;2023-08-01T20:53:01;1.73;;;0.87;;
12232;SDS011;6179;51.748;8.728;2023-08-01T20:59:02;0.93;;;0.50;;
12232;SDS011;6179;51.748;8.728;2023-08-01T21:05:03;1.10;;;0.67;;
12232;SDS011;6179;51.748;8.728;2023-08-01T21:11:10;3.30;;;0.70;;
12232;SDS011;6179;51.748;8.728;2023-08-01T21:17:11;1.87;;;0.80;;
12232;SDS011;6179;51.748;8.728;2023-08-01T21:23:12;2.80;;;0.60;;
12232;SDS011;6179;51.748;8.728;2023-08-01T21:29:12;7.20;;;0.90;;
12232;SDS011;6179;51.748;8.728;2023-08-01T21:35:13;1.17;;;0.53;;
12232;SDS011;6179;51.748;8.728;2023-08-01T21:41:14;3.53;;;0.80;;
12232;SDS011;6179;51.748;8.728;2023-08-01T21:47:15;4.13;;;0.80;;
12232;SDS011;6179;51.748;8.728;2023-08-01T21:53:16;0.50;;;0.50;;
12232;SDS011;6179;51.748;8.728;2023-08-01T21:59:17;2.23;;;0.93;;
12232;SDS011;6179;51.748;8.728;2023-08-01T22:05:17;6.00;;;0.73;;
12232;SDS011;6179;51.748;8.728;2023-08-01T22:11:18;2.23;;;0.70;;
12232;SDS011;6179;51.748;8.728;2023-08-01T22:17:19;3.50;;;1.00;;
12232;SDS011;6179;51.748;8.728;2023-08-01T22:23:20;2.27;;;1.57;;
12232;SDS011;6179;51.748;8.728;2023-08-01T22:29:23;5.60;;;0.60;;
12232;SDS011;6179;51.748;8.728;2023-08-01T22:35:24;0.63;;;0.60;;
12232;SDS011;6179;51.748;8.728;2023-08-01T22:41:27;4.33;;;0.60;;
12232;SDS011;6179;51.748;8.728;2023-08-01T22:47:28;1.47;;;0.60;;
12232;SDS011;6179;51.748;8.728;2023-08-01T22:53:29;2.53;;;0.50;;
12232;SDS011;6179;51.748;8.728;2023-08-01T22:59:29;1.23;;;0.60;;
12232;SDS011;6179;51.748;8.728;2023-08-01T23:05:30;1.43;;;0.80;;
12232;SDS011;6179;51.748;8.728;2023-08-01T23:11:31;4.07;;;0.70;;
12232;SDS011;6179;51.748;8.728;2023-08-01T23:17:34;3.00;;;1.00;;
12232;SDS011;6179;51.748;8.728;2023-08-01T23:23:35;4.77;;;0.50;;
12232;SDS011;6179;51.748;8.728;2023-08-01T23:29:36;4.73;;;0.60;;
12232;SDS011;6179;51.748;8.728;2023-08-01T23:35:36;3.80;;;0.77;;
12232;SDS011;6179;51.748;8.728;2023-08-01T23:41:37;2.13;;;1.30;;
12232;SDS011;6179;51.748;8.728;2023-08-01T23:47:38;2.70;;;0.73;;
12232;SDS011;6179;51.748;8.728;2023-08-01T23:53:39;2.83;;;0.50;;
12232;SDS011;6179;51.748;8.728;2023-08-01T23:59:39;2.73;;;0.63;;
